Terminal Aerodrome Forecast
Issued by NWS

Home | Current Version | Previous Version | Text Only | Print | Product List | Glossary On
Versions: 1 2 3 4 5 6 7 8 9 10 11 12 13 14 15 16 17
875
FTUS41 KBTV 190528
TAFMPV
TAF
KMPV 190528Z 1906/2006 18005KT P6SM VCSH SCT012 OVC025
      TEMPO 1906/1909 OVC012
     FM190900 21004KT 5SM BR OVC012
     FM191200 00000KT 6SM BR OVC020
     FM191900 31006KT P6SM OVC025=

USA.gov is the U.S. government's official web portal to all federal, state and local government web resources and services.